sensor_id;sensor_type;location;lat;lon;timestamp;pressure;altitude;pressure_sealevel;temperature;humidity
47284;BME280;33017;51.074;17.004;2023-05-24T16:21:41;100455.50;;;24.37;42.58
47284;BME280;33017;51.074;17.004;2023-05-24T16:24:07;100463.94;;;24.17;41.48
47284;BME280;33017;51.074;17.004;2023-05-24T16:26:34;100460.13;;;23.93;41.20
47284;BME280;33017;51.074;17.004;2023-05-24T16:29:01;100463.69;;;23.94;40.98
47284;BME280;33017;51.074;17.004;2023-05-24T16:31:28;100467.72;;;23.91;40.89
47284;BME280;33017;51.074;17.004;2023-05-24T16:33:55;100468.22;;;23.82;40.61
47284;BME280;33017;51.074;17.004;2023-05-24T16:36:24;100467.03;;;23.77;40.53
47284;BME280;33017;51.074;17.004;2023-05-24T16:38:52;100468.50;;;23.73;40.27
47284;BME280;33017;51.074;17.004;2023-05-24T16:41:19;100476.81;;;23.67;40.19
47284;BME280;33017;51.074;17.004;2023-05-24T16:43:45;100491.03;;;23.57;40.37
47284;BME280;33017;51.074;17.004;2023-05-24T16:46:12;100487.41;;;23.63;39.94
47284;BME280;33017;51.074;17.004;2023-05-24T16:48:39;100492.84;;;23.70;39.92
47284;BME280;33017;51.074;17.004;2023-05-24T16:51:07;100493.06;;;23.68;39.51
47284;BME280;33017;51.074;17.004;2023-05-24T16:53:34;100495.34;;;23.78;39.77
47284;BME280;33017;51.074;17.004;2023-05-24T16:56:01;100490.16;;;23.88;39.76
47284;BME280;33017;51.074;17.004;2023-05-24T16:58:29;100493.84;;;24.00;40.00
47284;BME280;33017;51.074;17.004;2023-05-24T17:00:57;100417.38;;;23.54;40.20
47284;BME280;33017;51.074;17.004;2023-05-24T17:03:25;100496.09;;;24.10;40.37
47284;BME280;33017;51.074;17.004;2023-05-24T17:05:56;100489.94;;;24.14;40.66
47284;BME280;33017;51.074;17.004;2023-05-24T17:08:27;100496.69;;;24.18;41.10
47284;BME280;33017;51.074;17.004;2023-05-24T17:10:54;100492.84;;;24.26;41.13
47284;BME280;33017;51.074;17.004;2023-05-24T17:13:22;100498.47;;;24.31;41.04
47284;BME280;33017;51.074;17.004;2023-05-24T17:15:49;100505.44;;;24.33;41.23
47284;BME280;33017;51.074;17.004;2023-05-24T17:18:21;100507.13;;;24.35;41.42
47284;BME280;33017;51.074;17.004;2023-05-24T17:20:56;100505.38;;;24.40;41.52
47284;BME280;33017;51.074;17.004;2023-05-24T17:23:24;100497.34;;;24.57;41.38
47284;BME280;33017;51.074;17.004;2023-05-24T17:25:51;100503.22;;;24.42;42.06
47284;BME280;33017;51.074;17.004;2023-05-24T17:28:18;100514.91;;;24.38;42.20
47284;BME280;33017;51.074;17.004;2023-05-24T17:30:45;100518.72;;;24.37;42.23
47284;BME280;33017;51.074;17.004;2023-05-24T17:33:12;100527.75;;;24.44;42.43
47284;BME280;33017;51.074;17.004;2023-05-24T17:35:39;100535.16;;;24.43;42.44
47284;BME280;33017;51.074;17.004;2023-05-24T17:38:08;100521.63;;;24.42;42.54
47284;BME280;33017;51.074;17.004;2023-05-24T17:40:35;100525.22;;;24.42;42.72
47284;BME280;33017;51.074;17.004;2023-05-24T17:43:01;100535.75;;;24.45;42.69
47284;BME280;33017;51.074;17.004;2023-05-24T17:45:28;100544.25;;;24.44;42.76
47284;BME280;33017;51.074;17.004;2023-05-24T17:47:55;100536.22;;;24.42;42.77
47284;BME280;33017;51.074;17.004;2023-05-24T17:50:22;100530.72;;;24.42;42.92
47284;BME280;33017;51.074;17.004;2023-05-24T17:52:48;100535.16;;;24.43;42.87
47284;BME280;33017;51.074;17.004;2023-05-24T17:55:15;100540.41;;;24.45;42.76
47284;BME280;33017;51.074;17.004;2023-05-24T17:57:42;100544.84;;;24.46;42.88
47284;BME280;33017;51.074;17.004;2023-05-24T18:00:09;100547.75;;;24.51;42.94
47284;BME280;33017;51.074;17.004;2023-05-24T18:02:44;100546.69;;;24.52;43.03
47284;BME280;33017;51.074;17.004;2023-05-24T18:05:10;100552.66;;;24.49;42.94
47284;BME280;33017;51.074;17.004;2023-05-24T18:07:37;100548.84;;;24.50;43.15
47284;BME280;33017;51.074;17.004;2023-05-24T18:10:04;100557.00;;;24.56;43.12
47284;BME280;33017;51.074;17.004;2023-05-24T18:12:32;100558.31;;;24.54;43.17
47284;BME280;33017;51.074;17.004;2023-05-24T18:14:59;100556.16;;;24.56;43.18
47284;BME280;33017;51.074;17.004;2023-05-24T18:17:26;100558.09;;;24.55;43.22
47284;BME280;33017;51.074;17.004;2023-05-24T18:19:53;100568.25;;;24.55;42.85
47284;BME280;33017;51.074;17.004;2023-05-24T18:22:19;100571.06;;;24.48;43.23
47284;BME280;33017;51.074;17.004;2023-05-24T18:24:46;100571.44;;;24.52;43.11
47284;BME280;33017;51.074;17.004;2023-05-24T18:27:13;100579.09;;;24.50;43.32
47284;BME280;33017;51.074;17.004;2023-05-24T18:29:39;100574.66;;;24.49;43.30
47284;BME280;33017;51.074;17.004;2023-05-24T18:32:06;100569.16;;;24.49;43.50
47284;BME280;33017;51.074;17.004;2023-05-24T18:34:33;100574.66;;;24.49;44.11
47284;BME280;33017;51.074;17.004;2023-05-24T18:37:00;100583.34;;;24.46;44.42
47284;BME280;33017;51.074;17.004;2023-05-24T18:39:26;100579.31;;;24.48;44.31
47284;BME280;33017;51.074;17.004;2023-05-24T18:41:53;100592.00;;;24.49;44.39
47284;BME280;33017;51.074;17.004;2023-05-24T18:44:20;100598.25;;;24.56;44.29
47284;BME280;33017;51.074;17.004;2023-05-24T18:46:47;100595.59;;;24.50;44.75
47284;BME280;33017;51.074;17.004;2023-05-24T18:49:14;100602.66;;;24.64;44.59
47284;BME280;33017;51.074;17.004;2023-05-24T18:51:43;100608.19;;;24.57;44.80
47284;BME280;33017;51.074;17.004;2023-05-24T18:54:09;100610.16;;;24.50;44.83
47284;BME280;33017;51.074;17.004;2023-05-24T18:56:36;100611.06;;;24.44;44.92
47284;BME280;33017;51.074;17.004;2023-05-24T18:59:03;100613.81;;;24.44;44.91
47284;BME280;33017;51.074;17.004;2023-05-24T19:01:30;100608.53;;;24.43;44.99
47284;BME280;33017;51.074;17.004;2023-05-24T19:03:56;100617.44;;;24.38;45.04
47284;BME280;33017;51.074;17.004;2023-05-24T19:06:23;100620.19;;;24.38;45.07
47284;BME280;33017;51.074;17.004;2023-05-24T19:08:50;100627.22;;;24.34;45.31
47284;BME280;33017;51.074;17.004;2023-05-24T19:11:16;100620.03;;;24.33;45.36
47284;BME280;33017;51.074;17.004;2023-05-24T19:13:43;100624.88;;;24.38;45.46
47284;BME280;33017;51.074;17.004;2023-05-24T19:16:10;100627.38;;;24.39;45.21
47284;BME280;33017;51.074;17.004;2023-05-24T19:18:43;100627.63;;;24.38;45.34
47284;BME280;33017;51.074;17.004;2023-05-24T19:21:10;100631.00;;;24.40;45.41
47284;BME280;33017;51.074;17.004;2023-05-24T19:23:37;100626.50;;;24.45;45.45
47284;BME280;33017;51.074;17.004;2023-05-24T19:26:06;100627.34;;;24.46;45.47
47284;BME280;33017;51.074;17.004;2023-05-24T19:28:32;100621.00;;;24.45;45.57
47284;BME280;33017;51.074;17.004;2023-05-24T19:31:03;100616.75;;;24.49;45.56
47284;BME280;33017;51.074;17.004;2023-05-24T19:33:30;100620.69;;;24.53;45.64
47284;BME280;33017;51.074;17.004;2023-05-24T19:35:56;100626.03;;;24.48;45.45
47284;BME280;33017;51.074;17.004;2023-05-24T19:38:23;100623.53;;;24.47;45.59
47284;BME280;33017;51.074;17.004;2023-05-24T19:40:50;100623.53;;;24.47;45.67
47284;BME280;33017;51.074;17.004;2023-05-24T19:43:17;100630.09;;;24.46;45.64
47284;BME280;33017;51.074;17.004;2023-05-24T19:45:43;100627.09;;;24.47;45.56
47284;BME280;33017;51.074;17.004;2023-05-24T19:48:10;100627.34;;;24.46;45.48
47284;BME280;33017;51.074;17.004;2023-05-24T19:50:37;100625.44;;;24.46;45.40
47284;BME280;33017;51.074;17.004;2023-05-24T19:53:05;100632.22;;;24.44;45.61
47284;BME280;33017;51.074;17.004;2023-05-24T19:55:32;100625.44;;;24.46;45.69
47284;BME280;33017;51.074;17.004;2023-05-24T19:57:59;100626.44;;;24.52;45.67
47284;BME280;33017;51.074;17.004;2023-05-24T20:00:26;100634.69;;;24.52;45.72
47284;BME280;33017;51.074;17.004;2023-05-24T20:02:53;100622.63;;;24.53;45.73
47284;BME280;33017;51.074;17.004;2023-05-24T20:05:19;100629.59;;;24.55;45.58
47284;BME280;33017;51.074;17.004;2023-05-24T20:07:46;100631.44;;;24.61;47.22
47284;BME280;33017;51.074;17.004;2023-05-24T20:10:13;100634.19;;;24.61;48.59
47284;BME280;33017;51.074;17.004;2023-05-24T20:12:39;100640.16;;;24.58;48.83
47284;BME280;33017;51.074;17.004;2023-05-24T20:15:08;100633.41;;;24.54;48.68
47284;BME280;33017;51.074;17.004;2023-05-24T20:17:35;100638.50;;;24.51;48.74
47284;BME280;33017;51.074;17.004;2023-05-24T20:20:02;100635.34;;;24.47;49.28
47284;BME280;33017;51.074;17.004;2023-05-24T20:22:29;100637.03;;;24.48;49.32
47284;BME280;33017;51.074;17.004;2023-05-24T20:24:56;100642.94;;;24.52;49.16
47284;BME280;33017;51.074;17.004;2023-05-24T20:27:23;100647.44;;;24.46;49.76
47284;BME280;33017;51.074;17.004;2023-05-24T20:29:50;100644.69;;;24.46;49.71
47284;BME280;33017;51.074;17.004;2023-05-24T20:32:17;100651.25;;;24.45;50.06
47284;BME280;33017;51.074;17.004;2023-05-24T20:34:43;100653.59;;;24.42;50.15
47284;BME280;33017;51.074;17.004;2023-05-24T20:37:10;100597.03;;;23.96;50.46
47284;BME280;33017;51.074;17.004;2023-05-24T20:39:38;100655.59;;;24.28;50.19
47284;BME280;33017;51.074;17.004;2023-05-24T20:42:04;100664.47;;;24.30;50.93
47284;BME280;33017;51.074;17.004;2023-05-24T20:44:31;100660.25;;;24.27;51.09
47284;BME280;33017;51.074;17.004;2023-05-24T20:46:58;100663.03;;;24.21;51.78
47284;BME280;33017;51.074;17.004;2023-05-24T20:49:39;100660.97;;;24.16;51.94
47284;BME280;33017;51.074;17.004;2023-05-24T20:52:11;100665.47;;;24.11;51.93
47284;BME280;33017;51.074;17.004;2023-05-24T20:54:38;100660.97;;;24.10;52.15
47284;BME280;33017;51.074;17.004;2023-05-24T20:57:04;100658.88;;;24.12;52.18
47284;BME280;33017;51.074;17.004;2023-05-24T20:59:33;100666.69;;;24.08;52.43
47284;BME280;33017;51.074;17.004;2023-05-24T21:02:03;100665.84;;;24.14;52.49
47284;BME280;33017;51.074;17.004;2023-05-24T21:04:30;100664.31;;;24.25;51.44
47284;BME280;33017;51.074;17.004;2023-05-24T21:06:57;100673.97;;;24.34;50.90
47284;BME280;33017;51.074;17.004;2023-05-24T21:09:23;100664.44;;;24.37;50.53
47284;BME280;33017;51.074;17.004;2023-05-24T21:11:50;100671.63;;;24.38;49.89
47284;BME280;33017;51.074;17.004;2023-05-24T21:14:17;100681.97;;;24.36;49.46
47284;BME280;33017;51.074;17.004;2023-05-24T21:16:43;100688.31;;;24.36;49.55
47284;BME280;33017;51.074;17.004;2023-05-24T21:19:10;100695.97;;;24.34;49.19
47284;BME280;33017;51.074;17.004;2023-05-24T21:21:37;100693.84;;;24.29;49.09
47284;BME280;33017;51.074;17.004;2023-05-24T21:24:04;100699.34;;;24.29;49.09
47284;BME280;33017;51.074;17.004;2023-05-24T21:26:31;100698.50;;;24.29;48.87
47284;BME280;33017;51.074;17.004;2023-05-24T21:28:58;100705.09;;;24.28;48.80
47284;BME280;33017;51.074;17.004;2023-05-24T21:31:24;100704.69;;;24.24;48.73
47284;BME280;33017;51.074;17.004;2023-05-24T21:33:54;100710.41;;;24.23;48.51
47284;BME280;33017;51.074;17.004;2023-05-24T21:36:21;100717.81;;;24.22;48.52
47284;BME280;33017;51.074;17.004;2023-05-24T21:38:48;100712.75;;;24.19;48.50
47284;BME280;33017;51.074;17.004;2023-05-24T21:41:15;100710.00;;;24.19;48.50
47284;BME280;33017;51.074;17.004;2023-05-24T21:43:42;100709.38;;;24.17;48.40
47284;BME280;33017;51.074;17.004;2023-05-24T21:46:08;100705.81;;;24.17;48.44
47284;BME280;33017;51.074;17.004;2023-05-24T21:48:35;100708.75;;;24.15;48.17
47284;BME280;33017;51.074;17.004;2023-05-24T21:51:02;100701.78;;;24.13;48.20
47284;BME280;33017;51.074;17.004;2023-05-24T21:53:28;100711.94;;;24.12;48.32
47284;BME280;33017;51.074;17.004;2023-05-24T21:55:55;100715.94;;;24.10;48.03
47284;BME280;33017;51.074;17.004;2023-05-24T21:58:23;100723.34;;;24.09;48.29
47284;BME280;33017;51.074;17.004;2023-05-24T22:00:50;100721.88;;;24.07;47.96
47284;BME280;33017;51.074;17.004;2023-05-24T22:03:17;100721.25;;;24.05;47.85
47284;BME280;33017;51.074;17.004;2023-05-24T22:05:44;100722.09;;;24.05;48.21
47284;BME280;33017;51.074;17.004;2023-05-24T22:08:10;100723.16;;;24.04;47.92
47284;BME280;33017;51.074;17.004;2023-05-24T22:10:37;100720.63;;;24.03;47.94
47284;BME280;33017;51.074;17.004;2023-05-24T22:13:04;100722.75;;;24.01;48.07
47284;BME280;33017;51.074;17.004;2023-05-24T22:15:31;100726.56;;;24.00;47.76
47284;BME280;33017;51.074;17.004;2023-05-24T22:17:57;100725.94;;;23.98;48.04
47284;BME280;33017;51.074;17.004;2023-05-24T22:20:26;100724.25;;;23.97;47.94
47284;BME280;33017;51.074;17.004;2023-05-24T22:22:55;100715.63;;;23.93;47.92
47284;BME280;33017;51.074;17.004;2023-05-24T22:25:24;100718.38;;;23.93;47.83
47284;BME280;33017;51.074;17.004;2023-05-24T22:27:51;100720.28;;;23.93;47.94
47284;BME280;33017;51.074;17.004;2023-05-24T22:30:18;100718.81;;;23.90;47.71
47284;BME280;33017;51.074;17.004;2023-05-24T22:32:45;100717.72;;;23.91;47.93
47284;BME280;33017;51.074;17.004;2023-05-24T22:35:12;100719.84;;;23.89;47.79
47284;BME280;33017;51.074;17.004;2023-05-24T22:37:38;100723.66;;;23.88;47.79
47284;BME280;33017;51.074;17.004;2023-05-24T22:40:05;100726.41;;;23.88;47.76
47284;BME280;33017;51.074;17.004;2023-05-24T22:42:33;100720.50;;;23.85;47.61
47284;BME280;33017;51.074;17.004;2023-05-24T22:44:59;100722.41;;;23.84;47.88
47284;BME280;33017;51.074;17.004;2023-05-24T22:47:26;100717.97;;;23.83;47.68
47284;BME280;33017;51.074;17.004;2023-05-24T22:49:54;100719.03;;;23.82;47.87
47284;BME280;33017;51.074;17.004;2023-05-24T22:52:20;100718.63;;;23.78;47.73
47284;BME280;33017;51.074;17.004;2023-05-24T22:54:49;100716.72;;;23.79;47.63
47284;BME280;33017;51.074;17.004;2023-05-24T22:57:16;100726.84;;;23.78;47.74
47284;BME280;33017;51.074;17.004;2023-05-24T22:59:48;100722.66;;;23.76;47.72
47284;BME280;33017;51.074;17.004;2023-05-24T23:02:14;100724.56;;;23.75;47.86
47284;BME280;33017;51.074;17.004;2023-05-24T23:04:41;100720.97;;;23.75;47.61
47284;BME280;33017;51.074;17.004;2023-05-24T23:07:12;100727.53;;;23.74;47.69
47284;BME280;33017;51.074;17.004;2023-05-24T23:09:41;100724.78;;;23.74;47.59
47284;BME280;33017;51.074;17.004;2023-05-24T23:12:08;100720.56;;;23.71;47.65
47284;BME280;33017;51.074;17.004;2023-05-24T23:14:36;100728.81;;;23.71;47.66
47284;BME280;33017;51.074;17.004;2023-05-24T23:17:07;100720.56;;;23.71;47.62
47284;BME280;33017;51.074;17.004;2023-05-24T23:19:46;100722.69;;;23.69;47.58
47284;BME280;33017;51.074;17.004;2023-05-24T23:22:15;100728.38;;;23.68;47.50
47284;BME280;33017;51.074;17.004;2023-05-24T23:24:45;100730.28;;;23.67;47.68
47284;BME280;33017;51.074;17.004;2023-05-24T23:27:14;100730.28;;;23.67;47.74
47284;BME280;33017;51.074;17.004;2023-05-24T23:29:41;100728.81;;;23.65;47.55
47284;BME280;33017;51.074;17.004;2023-05-24T23:32:08;100734.31;;;23.65;47.61
47284;BME280;33017;51.074;17.004;2023-05-24T23:34:36;100729.88;;;23.64;47.42
47284;BME280;33017;51.074;17.004;2023-05-24T23:37:03;100732.84;;;23.62;47.49
47284;BME280;33017;51.074;17.004;2023-05-24T23:39:30;100738.09;;;23.64;47.47
47284;BME280;33017;51.074;17.004;2023-05-24T23:41:56;100732.84;;;23.62;47.58
47284;BME280;33017;51.074;17.004;2023-05-24T23:44:23;100738.53;;;23.61;47.52
47284;BME280;33017;51.074;17.004;2023-05-24T23:46:51;100733.28;;;23.59;47.53
47284;BME280;33017;51.074;17.004;2023-05-24T23:49:19;100736.03;;;23.59;47.56
47284;BME280;33017;51.074;17.004;2023-05-24T23:51:46;100727.78;;;23.59;47.52
47284;BME280;33017;51.074;17.004;2023-05-24T23:54:13;100725.47;;;23.56;47.58
47284;BME280;33017;51.074;17.004;2023-05-24T23:56:44;100733.72;;;23.56;47.40
47284;BME280;33017;51.074;17.004;2023-05-24T23:59:11;100730.13;;;23.56;47.39
